createdAt,value
2023-03-23T15:58:20.263Z,17.47
2023-03-23T16:00:47.716Z,17.42
2023-03-23T16:03:19.818Z,17.31
2023-03-23T16:05:46.772Z,17.16
2023-03-23T16:08:16.144Z,17.04
2023-03-23T16:10:43.550Z,16.95
2023-03-23T16:13:11.489Z,16.87
2023-03-23T16:15:38.455Z,16.81
2023-03-23T16:18:09.388Z,16.75
2023-03-23T16:20:37.096Z,16.72
2023-03-23T16:23:04.597Z,16.69
2023-03-23T16:25:31.943Z,16.68
2023-03-23T16:27:59.576Z,16.66
2023-03-23T16:30:27.444Z,16.62
2023-03-23T16:32:57.643Z,16.57
2023-03-23T16:35:26.361Z,16.52
2023-03-23T16:38:07.728Z,16.48
2023-03-23T16:40:36.338Z,16.45
2023-03-23T16:43:09.168Z,16.39
2023-03-23T16:45:37.571Z,16.32
2023-03-23T16:48:04.984Z,16.27
2023-03-23T16:50:37.015Z,16.24
2023-03-23T16:53:04.333Z,16.19
2023-03-23T16:55:31.911Z,16.12
2023-03-23T16:58:15.318Z,16.04
2023-03-23T17:00:47.403Z,15.97
2023-03-23T17:03:15.620Z,15.87
2023-03-23T17:05:44.557Z,15.81
2023-03-23T17:08:12.549Z,15.78
2023-03-23T17:10:43.312Z,15.76
2023-03-23T17:13:12.507Z,15.73
2023-03-23T17:15:46.657Z,15.73
2023-03-23T17:18:15.322Z,15.70
2023-03-23T17:20:42.524Z,15.67
2023-03-23T17:23:09.815Z,15.65
2023-03-23T17:25:39.017Z,15.58
2023-03-23T17:28:08.478Z,15.49
2023-03-23T17:30:41.580Z,15.43
2023-03-23T17:33:11.392Z,15.39
2023-03-23T17:35:41.345Z,15.36
2023-03-23T17:38:18.397Z,15.33
2023-03-23T17:40:48.340Z,15.30
2023-03-23T17:43:18.526Z,15.27
2023-03-23T17:45:48.512Z,15.24
2023-03-23T17:48:17.337Z,15.14
2023-03-23T17:50:48.342Z,15.03
2023-03-23T17:53:24.633Z,14.95
2023-03-23T17:56:01.356Z,14.87
2023-03-23T17:58:30.415Z,14.80
2023-03-23T18:00:59.436Z,14.74
2023-03-23T18:03:29.367Z,14.68
2023-03-23T18:05:59.426Z,14.61
2023-03-23T18:08:28.877Z,14.54
2023-03-23T18:10:59.171Z,14.49
2023-03-23T18:13:28.324Z,14.43
2023-03-23T18:15:56.751Z,14.36
2023-03-23T18:18:26.384Z,14.27
2023-03-23T18:21:03.520Z,14.20
2023-03-23T18:23:43.072Z,14.14
2023-03-23T18:34:08.428Z,14.01
2023-03-23T18:36:38.405Z,13.95
2023-03-23T18:39:05.842Z,13.89
2023-03-23T18:41:33.144Z,13.82
2023-03-23T18:44:00.215Z,13.76
2023-03-23T18:46:27.258Z,13.67
2023-03-23T18:48:55.297Z,13.58
2023-03-23T18:51:22.195Z,13.52
2023-03-23T18:53:48.986Z,13.45
2023-03-23T18:56:16.214Z,13.38
2023-03-23T18:58:43.422Z,13.31
2023-03-23T19:01:11.990Z,13.25
2023-03-23T19:03:39.825Z,13.21
2023-03-23T19:06:07.751Z,13.16
2023-03-23T19:08:34.682Z,13.12
2023-03-23T19:11:07.538Z,13.09
2023-03-23T19:13:36.888Z,13.07
2023-03-23T19:16:04.882Z,13.05
2023-03-23T19:18:31.817Z,13.03
2023-03-23T19:21:13.440Z,13.01
2023-03-23T19:23:47.271Z,12.96
2023-03-23T19:26:23.642Z,12.91
2023-03-23T19:31:24.222Z,12.81
2023-03-23T19:33:52.473Z,12.73
2023-03-23T19:36:20.845Z,12.68
2023-03-23T19:38:50.299Z,12.64
2023-03-23T19:41:19.047Z,12.61
2023-03-23T19:43:46.159Z,12.59
2023-03-23T19:46:13.129Z,12.58
2023-03-23T19:48:46.721Z,12.56
2023-03-23T19:51:14.645Z,12.52
2023-03-23T19:53:41.785Z,12.44
2023-03-23T19:56:18.370Z,12.40
2023-03-23T19:58:45.539Z,12.37
2023-03-23T20:01:13.190Z,12.35
2023-03-23T20:04:04.288Z,12.32
2023-03-23T20:06:33.426Z,12.30
2023-03-23T20:09:01.267Z,12.29
2023-03-23T20:11:28.542Z,12.28
2023-03-23T20:13:56.161Z,12.25
2023-03-23T20:16:23.692Z,12.24
2023-03-23T20:18:50.848Z,12.24
2023-03-23T20:21:22.519Z,12.26
2023-03-23T20:23:51.477Z,12.29
2023-03-23T20:26:27.839Z,12.32
2023-03-23T20:28:55.226Z,12.34
2023-03-23T20:31:24.522Z,12.35
2023-03-23T20:34:00.791Z,12.33
2023-03-23T20:36:35.302Z,12.31
2023-03-23T20:39:07.650Z,12.30
2023-03-23T20:41:38.105Z,12.28
2023-03-23T20:44:06.574Z,12.28
2023-03-23T20:46:34.205Z,12.30
2023-03-23T20:49:01.608Z,12.32
2023-03-23T20:51:29.946Z,12.33
2023-03-23T20:54:01.601Z,12.33
2023-03-23T20:56:29.087Z,12.30
2023-03-23T20:58:56.917Z,12.26
2023-03-23T21:01:24.019Z,12.24
2023-03-23T21:03:53.581Z,12.23
2023-03-23T21:06:20.526Z,12.19
2023-03-23T21:08:48.305Z,12.13
2023-03-23T21:11:19.676Z,12.11
2023-03-23T21:13:47.320Z,12.11
2023-03-23T21:16:14.036Z,12.09
2023-03-23T21:18:41.407Z,12.09
2023-03-23T21:21:10.713Z,12.12
2023-03-23T21:23:38.311Z,12.15
2023-03-23T21:26:06.258Z,12.18
2023-03-23T21:28:33.746Z,12.20
2023-03-23T21:31:01.636Z,12.21
2023-03-23T21:33:31.796Z,12.21
2023-03-23T21:35:59.886Z,12.21
2023-03-23T21:38:31.908Z,12.22
2023-03-23T21:41:10.610Z,12.24
2023-03-23T21:43:39.419Z,12.24
2023-03-23T21:46:08.537Z,12.25
2023-03-23T21:48:38.214Z,12.23
2023-03-23T21:51:12.557Z,12.22
2023-03-23T21:53:53.556Z,12.22
2023-03-23T21:56:26.895Z,12.20
2023-03-23T21:58:54.458Z,12.18
2023-03-23T22:01:21.693Z,12.15
2023-03-23T22:03:48.487Z,12.13
2023-03-23T22:06:21.518Z,12.11
2023-03-23T22:08:48.382Z,12.10
2023-03-23T22:11:19.170Z,12.08
2023-03-23T22:13:51.183Z,12.07
2023-03-23T22:16:19.109Z,12.05
2023-03-23T22:18:46.292Z,12.02
2023-03-23T22:21:14.069Z,12.00
2023-03-23T22:23:42.337Z,11.97
2023-03-23T22:26:12.269Z,11.94
2023-03-23T22:28:40.229Z,11.92
2023-03-23T22:31:11.626Z,11.90
2023-03-23T22:33:38.835Z,11.88
2023-03-23T22:36:08.055Z,11.84
2023-03-23T22:38:39.166Z,11.81
2023-03-23T22:41:06.739Z,11.77
2023-03-23T22:43:34.620Z,11.75
2023-03-23T22:46:01.730Z,11.74
2023-03-23T22:48:33.713Z,11.72
2023-03-23T22:51:01.071Z,11.69
2023-03-23T22:53:28.116Z,11.67
2023-03-23T22:55:57.487Z,11.65
2023-03-23T22:58:25.484Z,11.64
2023-03-23T23:00:56.996Z,11.62
2023-03-23T23:03:24.715Z,11.60
2023-03-23T23:05:52.164Z,11.58
2023-03-23T23:08:24.429Z,11.57
2023-03-23T23:10:55.693Z,11.55
2023-03-23T23:13:23.009Z,11.53
2023-03-23T23:15:51.208Z,11.51
2023-03-23T23:18:20.094Z,11.49
2023-03-23T23:20:56.159Z,11.47
2023-03-23T23:23:23.836Z,11.45
2023-03-23T23:25:51.070Z,11.43
2023-03-23T23:28:20.063Z,11.41
2023-03-23T23:30:47.375Z,11.38
2023-03-23T23:33:18.354Z,11.36
2023-03-23T23:35:50.959Z,11.34
2023-03-23T23:38:18.588Z,11.32
2023-03-23T23:40:46.090Z,11.30
2023-03-23T23:43:15.784Z,11.27
2023-03-23T23:45:43.440Z,11.25
2023-03-23T23:48:13.139Z,11.24
2023-03-23T23:50:40.295Z,11.24
2023-03-23T23:53:09.378Z,11.24
2023-03-23T23:55:38.571Z,11.24
2023-03-23T23:58:05.827Z,11.24
